createdAt,value
2022-10-17T00:00:39.314Z,0.00
2022-10-17T00:01:39.270Z,0.00
2022-10-17T00:02:39.161Z,0.00
2022-10-17T00:03:39.077Z,0.00
2022-10-17T00:04:39.017Z,0.00
2022-10-17T00:05:38.947Z,0.00
2022-10-17T00:06:38.926Z,0.00
2022-10-17T00:07:38.842Z,0.00
2022-10-17T00:08:38.794Z,0.00
2022-10-17T00:09:38.712Z,0.00
2022-10-17T00:10:38.650Z,0.00
2022-10-17T00:11:38.591Z,0.00
2022-10-17T00:12:38.518Z,0.00
2022-10-17T00:13:38.446Z,0.00
2022-10-17T00:14:38.397Z,0.00
2022-10-17T00:15:38.331Z,0.00
2022-10-17T00:16:38.258Z,0.00
2022-10-17T00:17:38.198Z,0.00
2022-10-17T00:18:38.147Z,0.00
2022-10-17T00:19:38.065Z,0.00
2022-10-17T00:20:37.996Z,0.00
2022-10-17T00:21:37.936Z,0.00
2022-10-17T00:22:37.901Z,0.00
2022-10-17T00:23:37.841Z,0.00
2022-10-17T00:24:37.781Z,0.00
2022-10-17T00:25:37.699Z,0.00
2022-10-17T00:26:37.628Z,0.00
2022-10-17T00:27:37.572Z,0.00
2022-10-17T00:28:37.533Z,0.00
2022-10-17T00:29:37.446Z,0.00
2022-10-17T00:30:37.393Z,0.00
2022-10-17T00:31:37.304Z,0.00
2022-10-17T00:32:37.242Z,0.00
2022-10-17T00:33:37.187Z,0.00
2022-10-17T00:34:37.115Z,0.00
2022-10-17T00:35:37.047Z,0.00
2022-10-17T00:36:37.279Z,0.00
2022-10-17T00:37:36.919Z,0.00
2022-10-17T00:38:36.877Z,0.00
2022-10-17T00:39:36.806Z,0.00
2022-10-17T00:40:36.733Z,0.00
2022-10-17T00:41:36.668Z,0.00
2022-10-17T00:42:36.621Z,0.00
2022-10-17T00:43:36.537Z,0.00
2022-10-17T00:44:36.479Z,0.00
2022-10-17T00:45:36.427Z,0.00
2022-10-17T00:46:36.361Z,0.00
2022-10-17T00:47:36.281Z,0.00
2022-10-17T00:48:36.265Z,0.00
2022-10-17T00:49:36.175Z,0.00
2022-10-17T00:50:36.111Z,0.00
2022-10-17T00:51:36.034Z,0.00
2022-10-17T00:52:35.973Z,0.00
2022-10-17T00:53:35.926Z,0.00
2022-10-17T00:54:35.895Z,0.00
2022-10-17T00:55:35.790Z,0.00
2022-10-17T00:56:35.721Z,0.00
2022-10-17T00:57:35.656Z,0.00
2022-10-17T00:58:35.589Z,0.00
2022-10-17T00:59:35.537Z,0.00
2022-10-17T01:00:35.474Z,0.00
2022-10-17T01:01:35.436Z,0.00
2022-10-17T01:02:35.352Z,0.00
2022-10-17T01:03:35.281Z,0.00
2022-10-17T01:04:35.228Z,0.00
2022-10-17T01:05:35.150Z,0.00
2022-10-17T01:07:45.338Z,0.00
2022-10-17T01:08:46.249Z,0.00
2022-10-17T01:09:46.171Z,0.00
2022-10-17T01:10:46.103Z,0.00
2022-10-17T01:11:46.060Z,0.00
2022-10-17T01:12:46.014Z,0.00
2022-10-17T01:13:45.934Z,0.00
2022-10-17T01:14:45.851Z,0.00
2022-10-17T01:15:45.811Z,0.00
2022-10-17T01:16:45.749Z,0.00
2022-10-17T01:17:45.668Z,0.00
2022-10-17T01:18:45.618Z,0.00
2022-10-17T01:19:45.548Z,0.00
2022-10-17T01:20:45.492Z,0.00
2022-10-17T01:21:45.432Z,0.00
2022-10-17T01:22:45.366Z,0.00
2022-10-17T01:23:45.291Z,0.00
2022-10-17T01:26:53.919Z,0.00
2022-10-17T01:27:54.846Z,0.00
2022-10-17T01:28:54.784Z,0.00
2022-10-17T01:29:54.715Z,0.00
2022-10-17T01:30:54.663Z,0.00
2022-10-17T01:31:54.594Z,0.00
2022-10-17T01:32:54.513Z,0.00
2022-10-17T01:33:54.482Z,0.00
2022-10-17T01:34:54.404Z,0.00
2022-10-17T01:35:54.328Z,0.00
2022-10-17T01:36:54.305Z,0.00
2022-10-17T01:37:54.216Z,0.00
2022-10-17T01:38:54.141Z,0.00
2022-10-17T01:39:54.068Z,0.00
2022-10-17T01:40:54.019Z,0.00
2022-10-17T01:41:53.959Z,0.00
2022-10-17T01:42:53.893Z,0.00
2022-10-17T01:43:53.827Z,0.00
2022-10-17T01:44:53.748Z,0.00
2022-10-17T01:45:53.704Z,0.00
2022-10-17T01:46:53.678Z,0.00
2022-10-17T01:47:53.562Z,0.00
2022-10-17T01:48:53.514Z,0.00
2022-10-17T01:49:53.439Z,0.00
2022-10-17T01:50:53.383Z,0.00
2022-10-17T01:51:53.321Z,0.00
2022-10-17T01:52:53.260Z,0.00
2022-10-17T01:53:53.194Z,0.00
2022-10-17T01:54:53.130Z,0.00
2022-10-17T01:55:53.109Z,0.00
2022-10-17T01:56:52.958Z,1.00
2022-10-17T01:57:52.930Z,0.00
2022-10-17T01:58:52.866Z,0.00
2022-10-17T01:59:52.803Z,0.00
2022-10-17T02:01:13.812Z,0.00
2022-10-17T02:01:52.712Z,0.00
2022-10-17T02:02:52.625Z,0.00
2022-10-17T02:03:52.558Z,0.00
2022-10-17T02:04:52.531Z,0.00
2022-10-17T02:05:52.441Z,0.00
2022-10-17T02:06:52.375Z,0.00
2022-10-17T02:07:52.307Z,0.00
2022-10-17T02:08:52.224Z,0.00
2022-10-17T02:09:52.173Z,0.00
2022-10-17T02:10:52.107Z,0.00
2022-10-17T02:11:52.053Z,0.00
2022-10-17T02:12:51.995Z,0.00
2022-10-17T02:13:51.905Z,0.00
2022-10-17T02:14:51.863Z,0.00
2022-10-17T02:15:51.785Z,0.00
2022-10-17T02:16:51.718Z,0.00
2022-10-17T02:17:51.666Z,0.00
2022-10-17T02:20:00.810Z,0.00
2022-10-17T02:21:01.764Z,0.00
2022-10-17T02:22:01.693Z,0.00
2022-10-17T02:23:01.614Z,0.00
2022-10-17T02:24:01.562Z,0.00
2022-10-17T02:25:01.525Z,0.00
2022-10-17T02:26:01.454Z,0.00
2022-10-17T02:27:01.371Z,0.00
2022-10-17T02:28:01.303Z,0.00
2022-10-17T02:29:01.309Z,0.00
2022-10-17T02:30:01.173Z,0.00
2022-10-17T02:31:01.143Z,0.00
2022-10-17T02:32:01.055Z,0.00
2022-10-17T02:33:01.008Z,0.00
2022-10-17T02:34:00.932Z,0.00
2022-10-17T02:35:00.855Z,0.00
2022-10-17T02:36:00.802Z,0.00
2022-10-17T02:37:21.737Z,0.00
2022-10-17T02:38:00.678Z,0.00
2022-10-17T02:39:00.603Z,0.00
2022-10-17T02:40:00.535Z,0.00
2022-10-17T02:41:00.469Z,0.00
2022-10-17T02:42:00.424Z,0.00
2022-10-17T02:43:00.365Z,0.00
2022-10-17T02:44:02.370Z,0.00
2022-10-17T02:45:00.215Z,0.00
2022-10-17T02:46:00.160Z,0.00
2022-10-17T02:47:00.108Z,0.00
2022-10-17T02:48:00.032Z,0.00
2022-10-17T02:49:00.011Z,0.00
2022-10-17T02:49:59.902Z,0.00
2022-10-17T02:50:59.845Z,0.00
2022-10-17T02:51:59.778Z,0.00
2022-10-17T02:52:59.725Z,0.00
2022-10-17T02:53:59.652Z,0.00
2022-10-17T02:54:59.592Z,0.00
2022-10-17T02:55:59.518Z,0.00
2022-10-17T02:56:59.457Z,0.00
2022-10-17T02:57:59.392Z,0.00
2022-10-17T02:58:59.327Z,0.00
2022-10-17T02:59:59.265Z,0.00
2022-10-17T03:00:59.275Z,0.00
2022-10-17T03:01:59.132Z,0.00
2022-10-17T03:02:59.083Z,0.00
2022-10-17T03:03:59.016Z,0.00
2022-10-17T03:04:58.942Z,0.00
2022-10-17T03:05:58.896Z,0.00
2022-10-17T03:06:58.833Z,0.00
2022-10-17T03:07:58.766Z,0.00
2022-10-17T03:08:58.707Z,0.00
2022-10-17T03:09:58.632Z,0.00
2022-10-17T03:10:58.580Z,0.00
2022-10-17T03:11:58.502Z,0.00
2022-10-17T03:13:19.421Z,0.00
2022-10-17T03:13:58.385Z,0.00
2022-10-17T03:14:58.321Z,0.00
2022-10-17T03:15:58.248Z,0.00
2022-10-17T03:16:58.186Z,0.00
2022-10-17T03:17:58.117Z,0.00
2022-10-17T03:18:58.064Z,0.00
2022-10-17T03:19:58.026Z,0.00
2022-10-17T03:20:57.928Z,0.00
2022-10-17T03:21:57.875Z,0.00
2022-10-17T03:22:57.814Z,0.00
2022-10-17T03:23:57.739Z,0.00
2022-10-17T03:24:57.693Z,0.00
2022-10-17T03:25:57.637Z,0.00
2022-10-17T03:26:57.560Z,0.00
2022-10-17T03:27:57.513Z,0.00
2022-10-17T03:28:57.465Z,0.00
2022-10-17T03:29:57.362Z,0.00
2022-10-17T03:30:57.309Z,0.00
2022-10-17T03:31:57.262Z,0.00
2022-10-17T03:32:57.178Z,0.00
2022-10-17T03:33:57.113Z,0.00
2022-10-17T03:34:57.044Z,0.00
2022-10-17T03:35:56.974Z,0.00
2022-10-17T03:36:56.938Z,0.00
2022-10-17T03:37:56.846Z,0.00
2022-10-17T03:38:56.807Z,0.00
2022-10-17T03:39:56.736Z,0.00
2022-10-17T03:40:56.677Z,0.00
2022-10-17T03:41:56.602Z,0.00
2022-10-17T03:42:56.556Z,0.00
2022-10-17T03:43:56.463Z,0.00
2022-10-17T03:44:56.398Z,0.00
2022-10-17T03:45:56.371Z,0.00
2022-10-17T03:46:56.280Z,0.00
2022-10-17T03:47:56.211Z,0.00
2022-10-17T03:48:56.152Z,0.00
2022-10-17T03:49:56.081Z,0.00
2022-10-17T03:50:56.036Z,0.00
2022-10-17T03:51:55.977Z,0.00
2022-10-17T03:52:55.896Z,0.00
2022-10-17T03:53:55.828Z,0.00
2022-10-17T03:54:55.767Z,0.00
2022-10-17T03:55:55.707Z,0.00
2022-10-17T03:57:55.588Z,0.00
2022-10-17T03:58:55.517Z,0.00
2022-10-17T03:59:55.456Z,0.00
2022-10-17T04:00:55.409Z,0.00
2022-10-17T04:01:55.320Z,0.00
2022-10-17T04:02:55.269Z,0.00
2022-10-17T04:03:55.237Z,0.00
2022-10-17T04:04:55.127Z,0.00
2022-10-17T04:05:55.066Z,0.00
2022-10-17T04:06:55.011Z,0.00
2022-10-17T04:07:54.935Z,0.00
2022-10-17T04:08:54.875Z,0.00
2022-10-17T04:09:54.805Z,0.00
2022-10-17T04:10:54.765Z,0.00
2022-10-17T04:11:54.676Z,0.00
2022-10-17T04:12:54.636Z,0.00
2022-10-17T04:13:54.569Z,0.00
2022-10-17T04:14:54.496Z,0.00
2022-10-17T04:15:54.433Z,0.00
2022-10-17T04:16:54.375Z,0.00
2022-10-17T04:17:54.365Z,0.00
2022-10-17T04:18:54.249Z,0.00
2022-10-17T04:19:54.164Z,0.00
2022-10-17T04:20:54.116Z,0.00
2022-10-17T04:21:54.057Z,0.00
2022-10-17T04:22:53.997Z,0.00
2022-10-17T04:23:53.934Z,0.00
2022-10-17T04:24:53.865Z,0.00
2022-10-17T04:25:53.786Z,0.00
2022-10-17T04:26:53.748Z,0.00
2022-10-17T04:27:53.661Z,0.00
2022-10-17T04:28:53.599Z,0.00
2022-10-17T04:29:53.539Z,0.00
2022-10-17T04:30:54.191Z,0.00
2022-10-17T04:31:53.411Z,0.00
2022-10-17T04:32:53.349Z,0.00
2022-10-17T04:33:53.295Z,0.00
2022-10-17T04:34:53.230Z,0.00
2022-10-17T04:35:53.151Z,0.00
2022-10-17T04:36:53.122Z,0.00
2022-10-17T04:37:53.040Z,0.00
2022-10-17T04:38:52.973Z,0.00
2022-10-17T04:39:52.901Z,0.00
2022-10-17T04:40:52.839Z,0.00
2022-10-17T04:41:52.769Z,0.00
2022-10-17T04:43:13.701Z,0.00
2022-10-17T04:43:52.657Z,0.00
2022-10-17T04:44:52.618Z,0.00
2022-10-17T04:45:52.524Z,0.00
2022-10-17T04:46:52.461Z,0.00
2022-10-17T04:47:52.408Z,0.00
2022-10-17T04:48:52.354Z,0.00
2022-10-17T04:49:52.277Z,0.00
2022-10-17T04:50:52.215Z,0.00
2022-10-17T04:51:52.133Z,0.00
2022-10-17T04:52:52.081Z,0.00
2022-10-17T04:53:52.030Z,0.00
2022-10-17T04:54:51.957Z,0.00
2022-10-17T04:55:51.884Z,0.00
2022-10-17T04:56:51.820Z,0.00
2022-10-17T04:57:51.764Z,0.00
2022-10-17T04:58:51.708Z,0.00
2022-10-17T04:59:51.648Z,0.00
2022-10-17T05:01:12.632Z,0.00
2022-10-17T05:01:51.521Z,0.00
2022-10-17T05:02:51.450Z,0.00
2022-10-17T05:03:51.367Z,0.00
2022-10-17T05:04:51.309Z,0.00
2022-10-17T05:05:51.249Z,0.00
2022-10-17T05:06:51.208Z,0.00
2022-10-17T05:07:51.141Z,0.00
2022-10-17T05:08:51.077Z,0.00
2022-10-17T05:09:51.004Z,0.00
2022-10-17T05:10:50.967Z,0.00
2022-10-17T05:11:50.882Z,0.00
2022-10-17T05:12:50.862Z,0.00
2022-10-17T05:13:50.741Z,0.00
2022-10-17T05:14:50.623Z,1.00
2022-10-17T05:15:50.622Z,0.00
2022-10-17T05:16:50.546Z,0.00
2022-10-17T05:17:50.482Z,0.00
2022-10-17T05:18:52.830Z,1.00
2022-10-17T05:19:50.307Z,1.00
2022-10-17T05:20:50.240Z,1.00
2022-10-17T05:21:50.231Z,0.00
2022-10-17T05:22:50.170Z,0.00
2022-10-17T05:23:50.115Z,0.00
2022-10-17T05:24:50.026Z,2.00
2022-10-17T05:25:49.915Z,2.00
2022-10-17T05:26:49.889Z,1.00
2022-10-17T05:27:49.825Z,2.00
2022-10-17T05:28:49.858Z,2.00
2022-10-17T05:29:49.693Z,2.00
2022-10-17T05:30:49.617Z,2.00
2022-10-17T05:31:49.564Z,3.00
2022-10-17T05:32:49.536Z,1.00
2022-10-17T05:33:49.431Z,9.00
2022-10-17T05:34:49.367Z,3.00
2022-10-17T05:35:49.282Z,7.00
2022-10-17T05:38:28.090Z,18.00
2022-10-17T05:39:29.017Z,10.00
2022-10-17T05:40:28.933Z,9.00
2022-10-17T05:41:28.898Z,11.00
2022-10-17T05:42:29.263Z,15.00
2022-10-17T05:43:28.758Z,17.00
2022-10-17T05:44:28.684Z,19.00
2022-10-17T05:45:28.639Z,30.00
2022-10-17T05:46:28.582Z,30.00
2022-10-17T05:47:28.876Z,29.00
2022-10-17T05:48:28.711Z,35.00
2022-10-17T05:49:45.030Z,39.00
2022-10-17T05:50:28.324Z,38.00
2022-10-17T05:51:28.280Z,34.00
2022-10-17T05:52:28.502Z,29.00
2022-10-17T05:53:28.119Z,61.00
2022-10-17T05:54:28.089Z,67.00
2022-10-17T05:55:28.010Z,84.00
2022-10-17T05:56:28.422Z,89.00
2022-10-17T05:57:27.871Z,75.00
2022-10-17T05:59:27.767Z,88.00
2022-10-17T06:00:27.693Z,107.00
2022-10-17T06:01:27.624Z,120.00
2022-10-17T06:02:27.962Z,128.00
2022-10-17T06:03:27.531Z,142.00
2022-10-17T06:04:27.429Z,156.00
2022-10-17T06:05:27.361Z,163.00
2022-10-17T06:06:27.302Z,181.00
2022-10-17T06:07:27.237Z,197.00
2022-10-17T06:08:27.161Z,214.00
2022-10-17T06:09:27.117Z,236.00
2022-10-17T06:10:27.036Z,253.00
2022-10-17T06:11:26.974Z,278.00
2022-10-17T06:12:47.893Z,302.00
2022-10-17T06:13:26.862Z,316.00
2022-10-17T06:14:26.783Z,332.00
2022-10-17T06:15:26.720Z,353.00
2022-10-17T06:16:26.651Z,360.00
2022-10-17T06:17:26.597Z,369.00
2022-10-17T06:18:26.554Z,389.00
2022-10-17T06:19:26.466Z,391.00
2022-10-17T06:20:26.408Z,395.00
2022-10-17T06:21:26.356Z,397.00
2022-10-17T06:22:26.611Z,416.00
2022-10-17T06:23:26.239Z,426.00
2022-10-17T06:24:26.164Z,441.00
2022-10-17T06:25:26.103Z,467.00
2022-10-17T06:26:26.024Z,490.00
2022-10-17T06:27:25.970Z,501.00
2022-10-17T06:28:25.930Z,511.00
2022-10-17T06:29:25.862Z,518.00
2022-10-17T06:30:25.782Z,532.00
2022-10-17T06:31:25.720Z,551.00
2022-10-17T06:32:25.658Z,527.00
2022-10-17T06:33:25.588Z,617.00
2022-10-17T06:34:25.537Z,536.00
2022-10-17T06:35:25.449Z,670.00
2022-10-17T06:36:25.412Z,769.00
2022-10-17T06:37:25.338Z,638.00
2022-10-17T06:38:25.260Z,608.00
2022-10-17T06:39:25.215Z,631.00
2022-10-17T06:40:25.137Z,647.00
2022-10-17T06:41:25.070Z,625.00
2022-10-17T06:42:25.017Z,545.00
2022-10-17T06:43:27.998Z,723.00
2022-10-17T06:44:24.878Z,895.00
2022-10-17T06:45:24.845Z,825.00
2022-10-17T06:46:24.771Z,925.00
2022-10-17T06:47:24.693Z,1017.00
2022-10-17T06:48:45.626Z,838.00
2022-10-17T06:49:24.565Z,1144.00
2022-10-17T06:50:24.525Z,1506.00
2022-10-17T06:51:24.482Z,2909.00
2022-10-17T06:52:24.395Z,1712.00
2022-10-17T06:53:24.306Z,1506.00
2022-10-17T06:54:24.268Z,1725.00
2022-10-17T06:55:24.204Z,1383.00
2022-10-17T06:56:24.123Z,1082.00
2022-10-17T06:57:24.070Z,1061.00
2022-10-17T06:58:24.004Z,1580.00
2022-10-17T06:59:23.939Z,1498.00
2022-10-17T07:00:23.906Z,1779.00
2022-10-17T07:01:23.818Z,1212.00
2022-10-17T07:02:23.736Z,1271.00
2022-10-17T07:03:23.677Z,1842.00
2022-10-17T07:04:23.665Z,2004.00
2022-10-17T07:05:23.556Z,2084.00
2022-10-17T07:06:23.515Z,1372.00
2022-10-17T07:07:23.422Z,926.00
2022-10-17T07:08:23.362Z,1514.00
2022-10-17T07:09:23.298Z,1651.00
2022-10-17T07:10:23.252Z,1691.00
2022-10-17T07:11:23.184Z,1910.00
2022-10-17T07:12:23.131Z,2031.00
2022-10-17T07:13:23.064Z,1891.00
2022-10-17T07:14:23.001Z,2007.00
2022-10-17T07:15:22.917Z,2720.00
2022-10-17T07:16:22.900Z,2843.00
2022-10-17T07:17:22.793Z,2882.00
2022-10-17T07:18:22.757Z,1352.00
2022-10-17T07:19:22.676Z,2147.00
2022-10-17T07:20:22.617Z,3029.00
2022-10-17T07:21:22.542Z,2947.00
2022-10-17T07:22:22.478Z,2460.00
2022-10-17T07:23:22.431Z,4258.00
2022-10-17T07:24:43.379Z,4519.00
2022-10-17T07:25:22.313Z,5459.00
2022-10-17T07:26:22.254Z,5034.00
2022-10-17T07:27:22.176Z,4264.00
2022-10-17T07:28:22.134Z,3262.00
2022-10-17T07:29:22.047Z,2984.00
2022-10-17T07:30:21.997Z,2627.00
2022-10-17T07:31:21.903Z,2468.00
2022-10-17T07:32:21.854Z,2482.00
2022-10-17T07:33:21.800Z,3728.00
2022-10-17T07:34:21.733Z,3811.00
2022-10-17T07:35:21.661Z,3178.00
2022-10-17T07:36:21.618Z,3287.00
2022-10-17T07:37:21.561Z,2525.00
2022-10-17T07:38:21.661Z,2157.00
2022-10-17T07:39:21.407Z,2300.00
2022-10-17T07:40:21.357Z,2314.00
2022-10-17T07:41:21.939Z,1968.00
2022-10-17T07:44:00.086Z,1934.00
2022-10-17T07:45:00.989Z,1995.00
2022-10-17T07:46:00.944Z,1913.00
2022-10-17T07:47:00.867Z,1814.00
2022-10-17T07:48:00.837Z,1756.00
2022-10-17T07:49:00.753Z,1959.00
2022-10-17T07:50:00.722Z,1867.00
2022-10-17T07:51:00.635Z,2025.00
2022-10-17T07:52:00.559Z,1814.00
2022-10-17T07:53:00.513Z,1949.00
2022-10-17T07:54:00.487Z,1885.00
2022-10-17T07:55:00.378Z,1800.00
2022-10-17T07:56:00.312Z,1817.00
2022-10-17T07:57:00.266Z,1846.00
2022-10-17T07:58:00.199Z,1812.00
2022-10-17T07:59:02.634Z,1773.00
2022-10-17T08:00:00.112Z,1785.00
2022-10-17T08:01:00.085Z,1731.00
2022-10-17T08:01:59.926Z,1736.00
2022-10-17T08:02:59.871Z,1708.00
2022-10-17T08:03:59.796Z,1721.00
2022-10-17T08:04:59.733Z,1717.00
2022-10-17T08:05:59.701Z,1746.00
2022-10-17T08:07:11.311Z,1783.00
2022-10-17T08:07:59.556Z,1801.00
2022-10-17T08:08:59.487Z,1778.00
2022-10-17T08:09:59.500Z,1805.00
2022-10-17T08:10:59.364Z,1768.00
2022-10-17T08:11:59.325Z,1819.00
2022-10-17T08:12:59.240Z,1849.00
2022-10-17T08:13:59.174Z,1872.00
2022-10-17T08:14:59.136Z,1858.00
2022-10-17T08:15:59.058Z,1839.00
2022-10-17T08:16:58.999Z,1893.00
2022-10-17T08:17:58.945Z,1936.00
2022-10-17T08:18:58.964Z,1927.00
2022-10-17T08:19:58.789Z,1927.00
2022-10-17T08:21:00.216Z,1965.00
2022-10-17T08:21:58.671Z,2024.00
2022-10-17T08:22:58.601Z,2020.00
2022-10-17T08:23:58.567Z,2059.00
2022-10-17T08:24:58.492Z,2033.00
2022-10-17T08:25:58.443Z,1939.00
2022-10-17T08:26:58.382Z,1932.00
2022-10-17T08:27:58.338Z,1938.00
2022-10-17T08:28:58.306Z,1911.00
2022-10-17T08:29:58.204Z,2008.00
2022-10-17T08:30:58.152Z,2006.00
2022-10-17T08:32:01.155Z,2042.00
2022-10-17T08:32:57.980Z,2051.00
2022-10-17T08:33:57.951Z,2056.00
2022-10-17T08:34:57.855Z,2060.00
2022-10-17T08:37:36.662Z,2071.00
2022-10-17T08:38:40.344Z,2101.00
2022-10-17T08:39:37.528Z,2051.00
2022-10-17T08:40:37.461Z,1995.00
2022-10-17T08:41:37.409Z,2022.00
2022-10-17T08:42:37.341Z,2109.00
2022-10-17T08:43:37.260Z,1975.00
2022-10-17T08:44:37.224Z,2036.00
2022-10-17T08:45:37.136Z,2044.00
2022-10-17T08:46:37.085Z,2031.00
2022-10-17T08:47:37.044Z,2024.00
2022-10-17T08:48:36.965Z,1889.00
2022-10-17T08:49:36.900Z,1866.00
2022-10-17T08:50:36.824Z,1038.00
2022-10-17T08:51:36.788Z,3508.00
2022-10-17T08:52:36.701Z,3509.00
2022-10-17T08:54:45.845Z,2642.00
2022-10-17T08:55:46.768Z,2564.00
2022-10-17T08:56:49.292Z,2210.00
2022-10-17T08:57:46.647Z,3764.00
2022-10-17T08:58:46.579Z,2856.00
2022-10-17T08:59:46.543Z,2203.00
2022-10-17T09:00:46.463Z,2239.00
2022-10-17T09:01:46.397Z,2345.00
2022-10-17T09:02:46.381Z,2726.00
2022-10-17T09:03:46.273Z,2749.00
2022-10-17T09:04:46.189Z,2780.00
2022-10-17T09:05:46.171Z,2464.00
2022-10-17T09:06:46.088Z,2624.00
2022-10-17T09:07:46.001Z,2446.00
2022-10-17T09:08:45.953Z,2325.00
2022-10-17T09:09:45.876Z,2090.00
2022-10-17T09:10:45.821Z,2294.00
2022-10-17T09:11:45.815Z,2394.00
2022-10-17T09:12:45.693Z,2505.00
2022-10-17T09:13:45.636Z,2808.00
2022-10-17T09:14:45.578Z,2600.00
2022-10-17T09:15:45.526Z,2358.00
2022-10-17T09:16:45.469Z,2696.00
2022-10-17T09:17:45.412Z,2565.00
2022-10-17T09:18:45.321Z,2613.00
2022-10-17T09:19:45.263Z,2857.00
2022-10-17T09:20:45.188Z,2508.00
2022-10-17T09:21:45.838Z,2552.00
2022-10-17T09:22:45.139Z,2388.00
2022-10-17T09:23:45.299Z,2622.00
2022-10-17T09:24:45.019Z,2413.00
2022-10-17T09:25:44.921Z,2602.00
2022-10-17T09:26:44.830Z,2718.00
2022-10-17T09:27:44.749Z,2496.00
2022-10-17T09:28:44.743Z,2783.00
2022-10-17T09:30:07.270Z,2680.00
2022-10-17T09:30:45.855Z,2658.00
2022-10-17T09:31:44.558Z,2671.00
2022-10-17T09:32:44.447Z,2677.00
2022-10-17T09:33:59.978Z,2684.00
2022-10-17T09:34:44.341Z,2793.00
2022-10-17T09:35:44.377Z,2770.00
2022-10-17T09:36:44.191Z,2860.00
2022-10-17T09:37:44.143Z,2764.00
2022-10-17T09:38:44.091Z,2796.00
2022-10-17T09:39:44.021Z,2820.00
2022-10-17T09:40:43.957Z,2917.00
2022-10-17T09:41:46.063Z,2969.00
2022-10-17T09:42:43.829Z,3029.00
2022-10-17T09:43:43.766Z,3189.00
2022-10-17T09:44:43.705Z,3140.00
2022-10-17T09:45:43.652Z,3027.00
2022-10-17T09:46:43.563Z,3102.00
2022-10-17T09:47:43.581Z,2943.00
2022-10-17T09:48:43.503Z,2991.00
2022-10-17T09:49:43.378Z,2972.00
2022-10-17T09:50:43.317Z,2910.00
2022-10-17T09:51:43.267Z,3091.00
2022-10-17T09:52:43.207Z,3032.00
2022-10-17T09:53:43.253Z,2675.00
2022-10-17T09:54:43.072Z,2709.00
2022-10-17T09:55:43.023Z,2750.00
2022-10-17T09:56:43.007Z,2775.00
2022-10-17T09:57:42.873Z,2712.00
2022-10-17T09:58:42.854Z,2597.00
2022-10-17T09:59:42.813Z,2456.00
2022-10-17T10:00:42.767Z,2396.00
2022-10-17T10:01:42.650Z,2137.00
2022-10-17T10:02:42.589Z,2572.00
2022-10-17T10:03:42.510Z,2456.00
2022-10-17T10:05:03.347Z,2468.00
2022-10-17T10:05:42.409Z,2490.00
2022-10-17T10:06:42.319Z,2435.00
2022-10-17T10:07:42.272Z,2567.00
2022-10-17T10:08:42.208Z,2567.00
2022-10-17T10:09:42.142Z,2627.00
2022-10-17T10:10:42.079Z,2734.00
2022-10-17T10:11:42.020Z,2786.00
2022-10-17T10:12:41.960Z,2933.00
2022-10-17T10:13:41.904Z,2872.00
2022-10-17T10:14:44.222Z,3299.00
2022-10-17T10:15:41.786Z,3761.00
2022-10-17T10:16:41.708Z,3790.00
2022-10-17T10:17:41.656Z,3548.00
2022-10-17T10:18:41.593Z,3183.00
2022-10-17T10:19:41.529Z,3179.00
2022-10-17T10:20:41.443Z,3263.00
2022-10-17T10:21:44.001Z,3393.00
2022-10-17T10:22:41.320Z,3282.00
2022-10-17T10:24:02.311Z,3307.00
2022-10-17T10:24:41.199Z,3721.00
2022-10-17T10:25:41.160Z,3185.00
2022-10-17T10:26:41.091Z,2728.00
2022-10-17T10:27:41.129Z,1672.00
2022-10-17T10:28:41.001Z,2498.00
2022-10-17T10:29:40.971Z,3011.00
2022-10-17T10:31:01.807Z,3023.00
2022-10-17T10:31:40.786Z,2905.00
2022-10-17T10:32:40.702Z,3088.00
2022-10-17T10:33:41.765Z,3059.00
2022-10-17T10:34:40.578Z,2938.00
2022-10-17T10:35:40.538Z,2980.00
2022-10-17T10:36:40.494Z,2964.00
2022-10-17T10:37:40.609Z,3258.00
2022-10-17T10:38:40.490Z,2208.00
2022-10-17T10:39:40.276Z,5215.00
2022-10-17T10:40:40.216Z,4163.00
2022-10-17T10:42:01.132Z,3136.00
2022-10-17T10:42:40.093Z,2745.00
2022-10-17T10:43:40.026Z,2767.00
2022-10-17T10:44:39.969Z,2941.00
2022-10-17T10:45:48.013Z,2106.00
2022-10-17T10:46:39.845Z,2714.00
2022-10-17T10:47:39.800Z,2136.00
2022-10-17T10:48:39.716Z,2348.00
2022-10-17T10:49:39.656Z,2624.00
2022-10-17T10:50:44.367Z,2740.00
2022-10-17T10:51:39.542Z,3304.00
2022-10-17T10:52:39.470Z,3350.00
2022-10-17T10:53:39.428Z,3064.00
2022-10-17T10:55:39.302Z,2987.00
2022-10-17T10:56:39.223Z,3049.00
2022-10-17T10:57:39.165Z,2835.00
2022-10-17T10:58:42.151Z,2847.00
2022-10-17T11:00:00.031Z,2673.00
2022-10-17T11:00:39.203Z,2460.00
2022-10-17T11:01:38.926Z,2450.00
2022-10-17T11:02:38.856Z,2386.00
2022-10-17T11:03:38.798Z,2509.00
2022-10-17T11:04:38.727Z,2332.00
2022-10-17T11:05:38.691Z,2494.00
2022-10-17T11:06:38.617Z,2578.00
2022-10-17T11:07:38.552Z,2473.00
2022-10-17T11:08:38.486Z,2399.00
2022-10-17T11:09:38.422Z,2771.00
2022-10-17T11:10:38.364Z,2966.00
2022-10-17T11:11:38.319Z,2970.00
2022-10-17T11:12:38.283Z,2999.00
2022-10-17T11:13:38.179Z,2909.00
2022-10-17T11:14:38.119Z,3087.00
2022-10-17T11:15:38.053Z,2973.00
2022-10-17T11:16:37.988Z,2713.00
2022-10-17T11:17:58.912Z,2409.00
2022-10-17T11:18:37.880Z,2221.00
2022-10-17T11:19:37.804Z,2090.00
2022-10-17T11:20:37.747Z,2049.00
2022-10-17T11:21:37.702Z,1841.00
2022-10-17T11:22:37.622Z,1881.00
2022-10-17T11:23:37.588Z,1812.00
2022-10-17T11:24:37.497Z,1746.00
2022-10-17T11:25:37.443Z,1740.00
2022-10-17T11:26:37.371Z,1590.00
2022-10-17T11:27:37.319Z,1458.00
2022-10-17T11:28:37.286Z,1495.00
2022-10-17T11:29:37.214Z,1395.00
2022-10-17T11:30:37.152Z,1299.00
2022-10-17T11:31:37.063Z,1265.00
2022-10-17T11:32:37.032Z,1176.00
2022-10-17T11:33:36.944Z,1153.00
2022-10-17T11:34:36.894Z,1146.00
2022-10-17T11:37:16.681Z,1346.00
2022-10-17T11:38:17.605Z,1358.00
2022-10-17T11:39:17.543Z,1415.00
2022-10-17T11:40:20.391Z,1372.00
2022-10-17T11:41:17.446Z,1258.00
2022-10-17T11:42:17.370Z,1208.00
2022-10-17T11:43:17.308Z,1210.00
2022-10-17T11:44:17.239Z,1132.00
2022-10-17T11:45:17.184Z,1301.00
2022-10-17T11:46:17.118Z,1186.00
2022-10-17T11:47:17.075Z,1349.00
2022-10-17T11:48:16.990Z,1250.00
2022-10-17T11:49:20.429Z,1336.00
2022-10-17T11:52:26.991Z,1844.00
2022-10-17T11:53:37.670Z,1998.00
2022-10-17T11:54:16.623Z,2004.00
2022-10-17T11:55:16.589Z,2049.00
2022-10-17T11:56:16.571Z,2070.00
2022-10-17T11:57:16.434Z,1281.00
2022-10-17T11:58:16.468Z,1885.00
2022-10-17T11:59:16.318Z,5191.00
2022-10-17T12:00:16.260Z,4802.00
2022-10-17T12:01:16.199Z,2072.00
2022-10-17T12:02:16.127Z,2080.00
2022-10-17T12:03:16.078Z,2850.00
2022-10-17T12:04:16.032Z,2244.00
2022-10-17T12:05:15.978Z,1937.00
2022-10-17T12:06:15.887Z,1732.00
2022-10-17T12:07:15.819Z,5104.00
2022-10-17T12:08:15.761Z,5556.00
2022-10-17T12:09:15.699Z,2433.00
2022-10-17T12:10:15.634Z,1540.00
2022-10-17T12:11:15.586Z,2004.00
2022-10-17T12:12:15.512Z,1607.00
2022-10-17T12:13:15.451Z,1400.00
2022-10-17T12:14:15.398Z,1412.00
2022-10-17T12:15:15.323Z,1557.00
2022-10-17T12:16:17.518Z,1474.00
2022-10-17T12:17:15.221Z,1158.00
2022-10-17T12:18:15.144Z,1689.00
2022-10-17T12:19:15.079Z,2079.00
2022-10-17T12:20:15.023Z,2018.00
2022-10-17T12:21:14.961Z,1514.00
2022-10-17T12:22:14.900Z,1744.00
2022-10-17T12:23:14.859Z,1704.00
2022-10-17T12:24:18.813Z,1218.00
2022-10-17T12:25:14.713Z,2514.00
2022-10-17T12:26:14.648Z,2667.00
2022-10-17T12:27:14.590Z,2078.00
2022-10-17T12:28:14.679Z,1571.00
2022-10-17T12:30:53.327Z,1941.00
2022-10-17T12:31:54.249Z,1989.00
2022-10-17T12:33:05.775Z,2031.00
2022-10-17T12:33:54.160Z,1698.00
2022-10-17T12:34:54.063Z,1620.00
2022-10-17T12:35:54.008Z,1943.00
2022-10-17T12:36:53.944Z,1892.00
2022-10-17T12:37:57.415Z,1617.00
2022-10-17T12:38:53.824Z,1821.00
2022-10-17T12:39:53.752Z,1661.00
2022-10-17T12:40:53.692Z,1881.00
2022-10-17T12:41:53.645Z,1608.00
2022-10-17T12:42:53.571Z,1380.00
2022-10-17T12:43:53.518Z,1562.00
2022-10-17T12:44:53.450Z,1462.00
2022-10-17T12:45:53.382Z,1507.00
2022-10-17T12:46:53.323Z,1485.00
2022-10-17T12:47:53.278Z,1490.00
2022-10-17T12:48:53.200Z,1407.00
2022-10-17T12:49:56.571Z,1414.00
2022-10-17T12:50:53.079Z,1360.00
2022-10-17T12:51:53.019Z,1376.00
2022-10-17T12:52:52.963Z,1216.00
2022-10-17T12:53:52.919Z,1330.00
2022-10-17T12:55:07.145Z,1326.00
2022-10-17T12:55:52.770Z,1263.00
2022-10-17T12:56:52.710Z,1236.00